sensor_id;sensor_type;location;lat;lon;timestamp;pressure;altitude;pressure_sealevel;temperature;humidity
54329;BME280;40710;51.120;13.136;2023-08-06T00:00:54;98567.88;;;21.61;58.81
54329;BME280;40710;51.120;13.136;2023-08-06T00:03:19;98574.34;;;21.75;58.42
54329;BME280;40710;51.120;13.136;2023-08-06T00:05:43;98565.56;;;21.98;57.97
54329;BME280;40710;51.120;13.136;2023-08-06T00:08:08;98561.78;;;21.84;58.17
54329;BME280;40710;51.120;13.136;2023-08-06T00:10:33;98561.53;;;21.62;58.89
54329;BME280;40710;51.120;13.136;2023-08-06T00:12:57;98550.44;;;21.82;58.73
54329;BME280;40710;51.120;13.136;2023-08-06T00:15:22;98552.44;;;21.80;58.62
54329;BME280;40710;51.120;13.136;2023-08-06T00:17:46;98546.97;;;21.65;58.77
54329;BME280;40710;51.120;13.136;2023-08-06T00:20:11;98539.84;;;21.57;59.26
54329;BME280;40710;51.120;13.136;2023-08-06T00:22:37;98535.88;;;22.16;58.01
54329;BME280;40710;51.120;13.136;2023-08-06T00:25:03;98538.06;;;21.81;58.24
54329;BME280;40710;51.120;13.136;2023-08-06T00:27:29;98540.06;;;21.87;58.34
54329;BME280;40710;51.120;13.136;2023-08-06T00:29:53;98538.53;;;21.84;58.63
54329;BME280;40710;51.120;13.136;2023-08-06T00:32:18;98532.91;;;21.79;58.52
54329;BME280;40710;51.120;13.136;2023-08-06T00:34:43;98548.00;;;21.64;58.94
54329;BME280;40710;51.120;13.136;2023-08-06T00:37:07;98531.59;;;22.06;57.95
54329;BME280;40710;51.120;13.136;2023-08-06T00:39:32;98535.00;;;21.92;58.08
54329;BME280;40710;51.120;13.136;2023-08-06T00:41:57;98540.81;;;21.64;58.71
54329;BME280;40710;51.120;13.136;2023-08-06T00:44:22;98538.53;;;21.84;58.21
54329;BME280;40710;51.120;13.136;2023-08-06T00:46:47;98540.97;;;21.63;59.05
54329;BME280;40710;51.120;13.136;2023-08-06T00:49:12;98529.97;;;21.97;58.09
54329;BME280;40710;51.120;13.136;2023-08-06T00:51:37;98532.19;;;21.85;57.75
54329;BME280;40710;51.120;13.136;2023-08-06T00:54:02;98536.44;;;21.71;58.37
54329;BME280;40710;51.120;13.136;2023-08-06T00:56:27;98534.00;;;21.53;58.52
54329;BME280;40710;51.120;13.136;2023-08-06T00:58:52;98538.28;;;21.71;57.97
54329;BME280;40710;51.120;13.136;2023-08-06T01:01:16;98536.72;;;21.85;57.70
54329;BME280;40710;51.120;13.136;2023-08-06T01:03:41;98527.03;;;21.84;58.24
54329;BME280;40710;51.120;13.136;2023-08-06T01:06:05;98536.25;;;21.81;58.53
54329;BME280;40710;51.120;13.136;2023-08-06T01:11:55;98538.44;;;21.78;58.98
54329;BME280;40710;51.120;13.136;2023-08-06T01:14:30;98536.41;;;21.80;58.88
54329;BME280;40710;51.120;13.136;2023-08-06T01:16:58;98527.06;;;21.76;59.26
54329;BME280;40710;51.120;13.136;2023-08-06T01:19:23;98530.88;;;21.81;59.23
54329;BME280;40710;51.120;13.136;2023-08-06T01:21:47;98525.00;;;21.86;59.13
54329;BME280;40710;51.120;13.136;2023-08-06T01:24:12;98522.94;;;21.96;59.15
54329;BME280;40710;51.120;13.136;2023-08-06T01:26:43;98523.91;;;22.03;59.42
54329;BME280;40710;51.120;13.136;2023-08-06T01:31:43;98533.13;;;21.61;60.11
54329;BME280;40710;51.120;13.136;2023-08-06T01:34:19;98535.34;;;21.41;61.17
54329;BME280;40710;51.120;13.136;2023-08-06T01:36:45;98526.13;;;21.60;60.85
54329;BME280;40710;51.120;13.136;2023-08-06T01:39:10;98518.16;;;21.83;60.20
54329;BME280;40710;51.120;13.136;2023-08-06T01:41:36;98509.53;;;22.04;59.58
54329;BME280;40710;51.120;13.136;2023-08-06T01:44:00;98522.41;;;21.69;60.86
54329;BME280;40710;51.120;13.136;2023-08-06T01:46:25;98513.81;;;21.82;60.51
54329;BME280;40710;51.120;13.136;2023-08-06T01:48:49;98502.91;;;22.23;59.22
54329;BME280;40710;51.120;13.136;2023-08-06T01:51:14;98502.84;;;22.32;59.47
54329;BME280;40710;51.120;13.136;2023-08-06T01:53:38;98500.03;;;22.25;59.50
54329;BME280;40710;51.120;13.136;2023-08-06T01:56:03;98500.06;;;21.94;60.03
54329;BME280;40710;51.120;13.136;2023-08-06T01:58:29;98488.00;;;22.21;59.18
54329;BME280;40710;51.120;13.136;2023-08-06T02:00:53;98497.09;;;21.41;60.94
54329;BME280;40710;51.120;13.136;2023-08-06T02:03:18;98490.75;;;21.33;61.69
54329;BME280;40710;51.120;13.136;2023-08-06T02:05:43;98484.38;;;21.43;61.51
54329;BME280;40710;51.120;13.136;2023-08-06T02:08:07;98488.06;;;21.33;62.25
54329;BME280;40710;51.120;13.136;2023-08-06T02:10:32;98484.41;;;21.34;62.24
54329;BME280;40710;51.120;13.136;2023-08-06T02:12:57;98482.78;;;21.17;62.36
54329;BME280;40710;51.120;13.136;2023-08-06T02:15:21;98482.78;;;21.17;62.04
54329;BME280;40710;51.120;13.136;2023-08-06T02:17:46;98477.03;;;21.45;61.41
54329;BME280;40710;51.120;13.136;2023-08-06T02:20:12;98476.38;;;21.34;61.81
54329;BME280;40710;51.120;13.136;2023-08-06T02:22:37;98473.94;;;21.17;62.37
54329;BME280;40710;51.120;13.136;2023-08-06T02:25:02;98478.16;;;21.03;62.82
54329;BME280;40710;51.120;13.136;2023-08-06T02:27:27;98473.88;;;20.69;63.60
54329;BME280;40710;51.120;13.136;2023-08-06T02:29:52;98467.50;;;20.86;64.00
54329;BME280;40710;51.120;13.136;2023-08-06T02:32:16;98457.78;;;21.02;62.92
54329;BME280;40710;51.120;13.136;2023-08-06T02:34:41;98448.91;;;21.09;62.53
54329;BME280;40710;51.120;13.136;2023-08-06T02:37:06;98450.44;;;20.95;63.03
54329;BME280;40710;51.120;13.136;2023-08-06T02:39:30;98446.09;;;21.03;62.52
54329;BME280;40710;51.120;13.136;2023-08-06T02:41:55;98448.38;;;21.22;62.40
54329;BME280;40710;51.120;13.136;2023-08-06T02:44:20;98454.66;;;20.90;63.38
54329;BME280;40710;51.120;13.136;2023-08-06T02:46:45;98446.91;;;21.11;62.37
54329;BME280;40710;51.120;13.136;2023-08-06T02:49:09;98448.38;;;21.22;62.26
54329;BME280;40710;51.120;13.136;2023-08-06T02:51:34;98441.47;;;20.88;63.53
54329;BME280;40710;51.120;13.136;2023-08-06T02:53:59;98436.72;;;21.15;62.88
54329;BME280;40710;51.120;13.136;2023-08-06T02:56:23;98437.25;;;20.94;63.14
54329;BME280;40710;51.120;13.136;2023-08-06T02:58:48;98427.06;;;20.98;62.82
54329;BME280;40710;51.120;13.136;2023-08-06T03:01:12;98431.59;;;20.89;63.51
54329;BME280;40710;51.120;13.136;2023-08-06T03:03:38;98431.78;;;20.87;63.48
54329;BME280;40710;51.120;13.136;2023-08-06T03:06:02;98442.44;;;20.87;63.19
54329;BME280;40710;51.120;13.136;2023-08-06T03:08:28;98434.38;;;21.12;63.00
54329;BME280;40710;51.120;13.136;2023-08-06T03:10:52;98427.50;;;21.18;63.30
54329;BME280;40710;51.120;13.136;2023-08-06T03:13:17;98430.38;;;21.08;63.48
54329;BME280;40710;51.120;13.136;2023-08-06T03:15:43;98431.31;;;20.67;64.29
54329;BME280;40710;51.120;13.136;2023-08-06T03:18:07;98424.78;;;20.70;64.09
54329;BME280;40710;51.120;13.136;2023-08-06T03:20:32;98425.13;;;20.83;63.72
54329;BME280;40710;51.120;13.136;2023-08-06T03:22:57;98427.72;;;21.08;63.38
54329;BME280;40710;51.120;13.136;2023-08-06T03:25:22;98423.97;;;20.77;64.03
54329;BME280;40710;51.120;13.136;2023-08-06T03:27:46;98418.09;;;20.57;64.44
54329;BME280;40710;51.120;13.136;2023-08-06T03:30:11;98413.72;;;20.98;64.04
54329;BME280;40710;51.120;13.136;2023-08-06T03:32:36;98403.44;;;21.26;62.54
54329;BME280;40710;51.120;13.136;2023-08-06T03:35:01;98401.59;;;21.26;62.62
54329;BME280;40710;51.120;13.136;2023-08-06T03:37:25;98392.66;;;21.42;62.23
54329;BME280;40710;51.120;13.136;2023-08-06T03:39:50;98375.63;;;21.75;61.07
54329;BME280;40710;51.120;13.136;2023-08-06T03:42:14;98384.59;;;21.59;61.38
54329;BME280;40710;51.120;13.136;2023-08-06T03:44:39;98382.50;;;21.38;61.88
54329;BME280;40710;51.120;13.136;2023-08-06T03:47:04;98375.78;;;21.50;61.82
54329;BME280;40710;51.120;13.136;2023-08-06T03:49:28;98380.75;;;21.22;62.66
54329;BME280;40710;51.120;13.136;2023-08-06T03:51:53;98383.81;;;21.50;62.02
54329;BME280;40710;51.120;13.136;2023-08-06T03:54:17;98372.00;;;21.67;61.50
54329;BME280;40710;51.120;13.136;2023-08-06T03:56:42;98369.69;;;21.64;61.02
54329;BME280;40710;51.120;13.136;2023-08-06T03:59:06;98364.59;;;22.01;60.32
54329;BME280;40710;51.120;13.136;2023-08-06T04:01:31;98375.97;;;21.48;61.71
54329;BME280;40710;51.120;13.136;2023-08-06T04:03:55;98387.56;;;20.76;63.43
54329;BME280;40710;51.120;13.136;2023-08-06T04:06:20;98368.00;;;21.63;61.66
54329;BME280;40710;51.120;13.136;2023-08-06T04:08:45;98362.88;;;21.85;60.46
54329;BME280;40710;51.120;13.136;2023-08-06T04:11:09;98352.38;;;21.52;61.42
54329;BME280;40710;51.120;13.136;2023-08-06T04:13:34;98360.81;;;21.32;62.40
54329;BME280;40710;51.120;13.136;2023-08-06T04:16:02;98357.72;;;21.44;61.28
54329;BME280;40710;51.120;13.136;2023-08-06T04:18:27;98353.91;;;21.78;60.65
54329;BME280;40710;51.120;13.136;2023-08-06T04:20:52;98362.44;;;21.42;61.51
54329;BME280;40710;51.120;13.136;2023-08-06T04:23:16;98359.72;;;21.58;60.80
54329;BME280;40710;51.120;13.136;2023-08-06T04:25:41;98351.50;;;21.60;60.67
54329;BME280;40710;51.120;13.136;2023-08-06T04:28:07;98347.28;;;21.65;60.78
54329;BME280;40710;51.120;13.136;2023-08-06T04:30:31;98344.19;;;21.77;60.47
54329;BME280;40710;51.120;13.136;2023-08-06T04:32:57;98341.13;;;21.88;60.61
54329;BME280;40710;51.120;13.136;2023-08-06T04:35:22;98344.84;;;21.79;60.92
54329;BME280;40710;51.120;13.136;2023-08-06T04:37:47;98352.22;;;21.77;61.07
54329;BME280;40710;51.120;13.136;2023-08-06T04:40:12;98341.66;;;21.60;61.62
54329;BME280;40710;51.120;13.136;2023-08-06T04:42:38;98332.25;;;21.64;61.03
54329;BME280;40710;51.120;13.136;2023-08-06T04:45:02;98327.94;;;22.01;59.91
54329;BME280;40710;51.120;13.136;2023-08-06T04:47:28;98332.81;;;21.83;60.69
54329;BME280;40710;51.120;13.136;2023-08-06T04:49:53;98334.56;;;21.67;61.00
54329;BME280;40710;51.120;13.136;2023-08-06T04:52:18;98333.38;;;21.39;62.04
54329;BME280;40710;51.120;13.136;2023-08-06T04:54:43;98333.44;;;21.62;61.37
54329;BME280;40710;51.120;13.136;2023-08-06T04:57:08;98334.09;;;21.64;61.65
54329;BME280;40710;51.120;13.136;2023-08-06T04:59:33;98328.66;;;21.49;61.48
54329;BME280;40710;51.120;13.136;2023-08-06T05:01:57;98333.69;;;21.44;62.08
54329;BME280;40710;51.120;13.136;2023-08-06T05:04:22;98339.38;;;21.49;61.97
54329;BME280;40710;51.120;13.136;2023-08-06T05:06:48;98334.31;;;21.54;61.70
54329;BME280;40710;51.120;13.136;2023-08-06T05:09:12;98339.38;;;21.72;61.44
54329;BME280;40710;51.120;13.136;2023-08-06T05:11:37;98343.06;;;21.48;61.78
54329;BME280;40710;51.120;13.136;2023-08-06T05:14:02;98331.91;;;21.67;61.33
54329;BME280;40710;51.120;13.136;2023-08-06T05:16:27;98329.66;;;21.79;60.85
54329;BME280;40710;51.120;13.136;2023-08-06T05:18:51;98322.38;;;22.11;60.10
54329;BME280;40710;51.120;13.136;2023-08-06T05:21:16;98321.97;;;21.99;59.88
54329;BME280;40710;51.120;13.136;2023-08-06T05:23:41;98317.91;;;22.41;59.13
54329;BME280;40710;51.120;13.136;2023-08-06T05:26:06;98315.50;;;21.94;60.34
54329;BME280;40710;51.120;13.136;2023-08-06T05:28:30;98311.78;;;22.18;59.33
54329;BME280;40710;51.120;13.136;2023-08-06T05:30:55;98314.22;;;22.04;60.13
54329;BME280;40710;51.120;13.136;2023-08-06T05:33:20;98311.31;;;21.91;60.28
54329;BME280;40710;51.120;13.136;2023-08-06T05:35:44;98324.34;;;21.40;62.01
54329;BME280;40710;51.120;13.136;2023-08-06T05:38:10;98324.34;;;21.48;61.36
54329;BME280;40710;51.120;13.136;2023-08-06T05:40:35;98317.63;;;21.52;61.16
54329;BME280;40710;51.120;13.136;2023-08-06T05:42:59;98313.13;;;21.76;60.41
54329;BME280;40710;51.120;13.136;2023-08-06T05:45:24;98318.66;;;21.43;61.46
54329;BME280;40710;51.120;13.136;2023-08-06T05:47:49;98303.38;;;21.83;60.15
54329;BME280;40710;51.120;13.136;2023-08-06T05:50:14;98306.25;;;21.58;60.05
54329;BME280;40710;51.120;13.136;2023-08-06T05:52:38;98303.88;;;21.32;60.90
54329;BME280;40710;51.120;13.136;2023-08-06T05:55:03;98306.25;;;21.58;60.19
54329;BME280;40710;51.120;13.136;2023-08-06T05:57:28;98302.50;;;21.36;60.18
54329;BME280;40710;51.120;13.136;2023-08-06T05:59:52;98301.72;;;21.59;59.93
54329;BME280;40710;51.120;13.136;2023-08-06T06:02:17;98311.38;;;21.60;60.08
54329;BME280;40710;51.120;13.136;2023-08-06T06:04:43;98300.22;;;21.79;58.97
54329;BME280;40710;51.120;13.136;2023-08-06T06:07:08;98308.31;;;21.08;60.60
54329;BME280;40710;51.120;13.136;2023-08-06T06:09:33;98321.16;;;20.73;61.28
54329;BME280;40710;51.120;13.136;2023-08-06T06:11:57;98314.41;;;20.94;61.11
54329;BME280;40710;51.120;13.136;2023-08-06T06:14:22;98335.28;;;20.18;63.63
54329;BME280;40710;51.120;13.136;2023-08-06T06:16:46;98331.06;;;20.48;63.14
54329;BME280;40710;51.120;13.136;2023-08-06T06:19:11;98320.09;;;20.18;63.58
54329;BME280;40710;51.120;13.136;2023-08-06T06:21:36;98320.00;;;20.68;62.28
54329;BME280;40710;51.120;13.136;2023-08-06T06:24:02;98325.06;;;20.38;62.54
54329;BME280;40710;51.120;13.136;2023-08-06T06:26:27;98310.97;;;20.77;61.76
54329;BME280;40710;51.120;13.136;2023-08-06T06:28:52;98318.69;;;20.47;62.15
54329;BME280;40710;51.120;13.136;2023-08-06T06:31:17;98311.28;;;20.82;61.33
54329;BME280;40710;51.120;13.136;2023-08-06T06:33:41;98312.00;;;20.59;61.62
54329;BME280;40710;51.120;13.136;2023-08-06T06:36:06;98322.03;;;20.49;62.13
54329;BME280;40710;51.120;13.136;2023-08-06T06:38:32;98319.25;;;20.26;62.14
54329;BME280;40710;51.120;13.136;2023-08-06T06:40:57;98317.09;;;20.13;62.83
54329;BME280;40710;51.120;13.136;2023-08-06T06:43:23;98306.66;;;20.68;61.06
54329;BME280;40710;51.120;13.136;2023-08-06T06:45:56;98305.44;;;20.78;61.04
54329;BME280;40710;51.120;13.136;2023-08-06T06:48:22;98307.34;;;20.62;60.82
54329;BME280;40710;51.120;13.136;2023-08-06T06:50:47;98307.78;;;20.82;60.14
54329;BME280;40710;51.120;13.136;2023-08-06T06:53:12;98304.28;;;20.81;59.42
54329;BME280;40710;51.120;13.136;2023-08-06T06:55:37;98308.50;;;20.51;60.93
54329;BME280;40710;51.120;13.136;2023-08-06T06:58:02;98319.09;;;20.11;61.85
54329;BME280;40710;51.120;13.136;2023-08-06T07:00:26;98322.75;;;20.10;62.17
54329;BME280;40710;51.120;13.136;2023-08-06T07:02:51;98320.06;;;20.43;61.53
54329;BME280;40710;51.120;13.136;2023-08-06T07:05:16;98315.69;;;20.58;61.04
54329;BME280;40710;51.120;13.136;2023-08-06T07:07:41;98321.41;;;20.23;61.27
54329;BME280;40710;51.120;13.136;2023-08-06T07:10:06;98323.22;;;20.47;61.04
54329;BME280;40710;51.120;13.136;2023-08-06T07:12:30;98328.38;;;20.40;62.01
54329;BME280;40710;51.120;13.136;2023-08-06T07:14:56;98318.50;;;20.57;61.34
54329;BME280;40710;51.120;13.136;2023-08-06T07:17:20;98324.88;;;20.64;61.27
54329;BME280;40710;51.120;13.136;2023-08-06T07:19:45;98326.34;;;20.58;61.40
54329;BME280;40710;51.120;13.136;2023-08-06T07:22:10;98328.22;;;20.42;61.82
54329;BME280;40710;51.120;13.136;2023-08-06T07:24:35;98334.69;;;20.55;61.71
54329;BME280;40710;51.120;13.136;2023-08-06T07:27:00;98332.78;;;19.92;63.43
54329;BME280;40710;51.120;13.136;2023-08-06T07:29:25;98331.38;;;20.62;62.42
54329;BME280;40710;51.120;13.136;2023-08-06T07:31:50;98333.72;;;20.32;63.09
54329;BME280;40710;51.120;13.136;2023-08-06T07:34:15;98340.03;;;20.55;62.25
54329;BME280;40710;51.120;13.136;2023-08-06T07:36:40;98346.75;;;20.43;63.04
54329;BME280;40710;51.120;13.136;2023-08-06T07:39:05;98333.50;;;20.74;62.19
54329;BME280;40710;51.120;13.136;2023-08-06T07:41:30;98341.56;;;20.50;63.05
54329;BME280;40710;51.120;13.136;2023-08-06T07:43:55;98327.69;;;20.63;62.27
54329;BME280;40710;51.120;13.136;2023-08-06T07:46:21;98336.72;;;20.53;63.28
54329;BME280;40710;51.120;13.136;2023-08-06T07:48:45;98329.09;;;20.01;64.35
54329;BME280;40710;51.120;13.136;2023-08-06T07:51:10;98333.75;;;20.15;63.90
54329;BME280;40710;51.120;13.136;2023-08-06T07:53:35;98337.53;;;20.46;63.94
54329;BME280;40710;51.120;13.136;2023-08-06T07:56:00;98340.91;;;20.39;63.77
54329;BME280;40710;51.120;13.136;2023-08-06T07:58:26;98321.69;;;21.08;62.31
54329;BME280;40710;51.120;13.136;2023-08-06T08:00:51;98322.66;;;21.15;62.11
54329;BME280;40710;51.120;13.136;2023-08-06T08:03:16;98324.09;;;21.26;61.73
54329;BME280;40710;51.120;13.136;2023-08-06T08:05:44;98334.34;;;20.75;63.28
54329;BME280;40710;51.120;13.136;2023-08-06T08:08:09;98324.69;;;20.49;63.73
54329;BME280;40710;51.120;13.136;2023-08-06T08:10:34;98324.09;;;20.14;64.58
54329;BME280;40710;51.120;13.136;2023-08-06T08:12:59;98307.69;;;20.50;63.74
54329;BME280;40710;51.120;13.136;2023-08-06T08:15:24;98318.03;;;20.37;64.29
54329;BME280;40710;51.120;13.136;2023-08-06T08:17:50;98314.25;;;20.87;63.30
54329;BME280;40710;51.120;13.136;2023-08-06T08:20:16;98312.00;;;20.68;63.67
54329;BME280;40710;51.120;13.136;2023-08-06T08:22:41;98309.75;;;20.88;63.95
54329;BME280;40710;51.120;13.136;2023-08-06T08:25:06;98304.97;;;21.14;63.17
54329;BME280;40710;51.120;13.136;2023-08-06T08:27:30;98299.50;;;21.08;63.37
54329;BME280;40710;51.120;13.136;2023-08-06T08:29:55;98298.53;;;21.01;62.94
54329;BME280;40710;51.120;13.136;2023-08-06T08:32:20;98296.59;;;20.86;64.10
54329;BME280;40710;51.120;13.136;2023-08-06T08:34:44;98285.03;;;21.25;62.68
54329;BME280;40710;51.120;13.136;2023-08-06T08:37:09;98282.84;;;21.29;62.47
54329;BME280;40710;51.120;13.136;2023-08-06T08:39:33;98287.38;;;21.28;62.81
54329;BME280;40710;51.120;13.136;2023-08-06T08:41:58;98281.47;;;21.33;62.57
54329;BME280;40710;51.120;13.136;2023-08-06T08:44:23;98277.56;;;21.44;62.48
54329;BME280;40710;51.120;13.136;2023-08-06T08:46:52;98269.81;;;21.57;62.42
54329;BME280;40710;51.120;13.136;2023-08-06T08:49:18;98268.88;;;21.50;62.02
54329;BME280;40710;51.120;13.136;2023-08-06T08:51:46;98272.97;;;21.29;63.00
54329;BME280;40710;51.120;13.136;2023-08-06T08:54:13;98259.84;;;21.20;63.45
54329;BME280;40710;51.120;13.136;2023-08-06T08:56:39;98268.94;;;21.33;63.28
54329;BME280;40710;51.120;13.136;2023-08-06T08:59:04;98263.66;;;21.25;63.46
54329;BME280;40710;51.120;13.136;2023-08-06T09:01:30;98261.22;;;21.39;63.04
54329;BME280;40710;51.120;13.136;2023-08-06T09:03:54;98249.38;;;22.02;62.15
54329;BME280;40710;51.120;13.136;2023-08-06T09:06:21;98247.44;;;22.26;60.92
54329;BME280;40710;51.120;13.136;2023-08-06T09:08:57;98252.22;;;22.16;61.65
54329;BME280;40710;51.120;13.136;2023-08-06T09:11:26;98235.75;;;22.57;61.22
54329;BME280;40710;51.120;13.136;2023-08-06T09:13:53;98230.94;;;23.03;59.56
54329;BME280;40710;51.120;13.136;2023-08-06T09:16:19;98228.75;;;22.92;60.20
54329;BME280;40710;51.120;13.136;2023-08-06T09:18:43;98230.50;;;23.00;60.01
54329;BME280;40710;51.120;13.136;2023-08-06T09:21:14;98234.88;;;23.22;59.60
54329;BME280;40710;51.120;13.136;2023-08-06T09:23:41;98241.84;;;23.17;59.40
54329;BME280;40710;51.120;13.136;2023-08-06T09:26:06;98239.34;;;22.64;59.72
54329;BME280;40710;51.120;13.136;2023-08-06T09:28:37;98244.31;;;22.07;61.37
54329;BME280;40710;51.120;13.136;2023-08-06T09:31:08;98228.22;;;22.97;59.66
54329;BME280;40710;51.120;13.136;2023-08-06T09:33:32;98237.63;;;23.29;59.00
54329;BME280;40710;51.120;13.136;2023-08-06T09:36:07;98231.78;;;23.40;58.77
54329;BME280;40710;51.120;13.136;2023-08-06T09:38:38;98235.53;;;22.88;59.20
54329;BME280;40710;51.120;13.136;2023-08-06T09:41:04;98237.72;;;23.14;58.99
54329;BME280;40710;51.120;13.136;2023-08-06T09:43:28;98237.09;;;23.34;58.53
54329;BME280;40710;51.120;13.136;2023-08-06T09:45:54;98224.19;;;23.44;57.84
54329;BME280;40710;51.120;13.136;2023-08-06T09:48:24;98233.44;;;23.20;58.96
54329;BME280;40710;51.120;13.136;2023-08-06T09:50:50;98240.13;;;23.09;59.16
54329;BME280;40710;51.120;13.136;2023-08-06T09:53:17;98243.25;;;22.46;60.93
54329;BME280;40710;51.120;13.136;2023-08-06T09:55:45;98236.59;;;23.09;59.68
54329;BME280;40710;51.120;13.136;2023-08-06T09:58:10;98220.22;;;23.03;59.60
54329;BME280;40710;51.120;13.136;2023-08-06T10:00:35;98217.94;;;22.64;59.50
54329;BME280;40710;51.120;13.136;2023-08-06T10:03:00;98217.97;;;22.85;58.43
54329;BME280;40710;51.120;13.136;2023-08-06T10:05:26;98210.31;;;22.82;58.70
54329;BME280;40710;51.120;13.136;2023-08-06T10:07:51;98204.69;;;23.14;57.83
54329;BME280;40710;51.120;13.136;2023-08-06T10:10:17;98210.19;;;23.27;58.01
54329;BME280;40710;51.120;13.136;2023-08-06T10:12:49;98208.38;;;23.77;57.54
54329;BME280;40710;51.120;13.136;2023-08-06T10:15:22;98197.78;;;23.69;57.32
54329;BME280;40710;51.120;13.136;2023-08-06T10:17:52;98193.19;;;23.63;56.62
54329;BME280;40710;51.120;13.136;2023-08-06T10:20:17;98184.13;;;23.64;56.57
54329;BME280;40710;51.120;13.136;2023-08-06T10:22:44;98179.97;;;23.83;55.65
54329;BME280;40710;51.120;13.136;2023-08-06T10:25:09;98184.22;;;23.49;56.97
54329;BME280;40710;51.120;13.136;2023-08-06T10:27:35;98174.72;;;23.75;56.26
54329;BME280;40710;51.120;13.136;2023-08-06T10:30:26;98166.59;;;23.90;56.12
54329;BME280;40710;51.120;13.136;2023-08-06T10:32:53;98161.94;;;24.47;54.54
54329;BME280;40710;51.120;13.136;2023-08-06T10:35:27;98172.69;;;23.55;56.53
54329;BME280;40710;51.120;13.136;2023-08-06T10:37:58;98160.25;;;24.39;54.68
54329;BME280;40710;51.120;13.136;2023-08-06T10:40:22;98160.03;;;24.34;55.10
54329;BME280;40710;51.120;13.136;2023-08-06T10:42:48;98146.16;;;24.79;53.68
54329;BME280;40710;51.120;13.136;2023-08-06T10:45:17;98137.69;;;24.68;53.96
54329;BME280;40710;51.120;13.136;2023-08-06T10:47:45;98135.88;;;24.96;53.28
54329;BME280;40710;51.120;13.136;2023-08-06T10:50:15;98131.09;;;24.98;52.86
54329;BME280;40710;51.120;13.136;2023-08-06T10:52:44;98124.91;;;24.90;52.92
54329;BME280;40710;51.120;13.136;2023-08-06T10:55:09;98122.44;;;25.09;52.43
54329;BME280;40710;51.120;13.136;2023-08-06T10:57:34;98126.75;;;24.83;53.58
54329;BME280;40710;51.120;13.136;2023-08-06T10:59:59;98108.53;;;25.85;50.99
54329;BME280;40710;51.120;13.136;2023-08-06T11:02:25;98104.00;;;25.99;50.80
54329;BME280;40710;51.120;13.136;2023-08-06T11:04:50;98100.69;;;26.49;50.84
54329;BME280;40710;51.120;13.136;2023-08-06T11:07:14;98099.81;;;26.10;49.13
54329;BME280;40710;51.120;13.136;2023-08-06T11:09:39;98103.16;;;25.99;50.63
54329;BME280;40710;51.120;13.136;2023-08-06T11:12:09;98101.53;;;25.91;50.71
54329;BME280;40710;51.120;13.136;2023-08-06T11:14:34;98094.50;;;27.12;47.45
54329;BME280;40710;51.120;13.136;2023-08-06T11:16:58;98093.28;;;26.38;48.16
54329;BME280;40710;51.120;13.136;2023-08-06T11:19:23;98084.44;;;27.26;47.02
54329;BME280;40710;51.120;13.136;2023-08-06T11:21:48;98080.91;;;26.23;47.94
54329;BME280;40710;51.120;13.136;2023-08-06T11:24:13;98099.72;;;25.58;49.68
54329;BME280;40710;51.120;13.136;2023-08-06T11:26:38;98081.34;;;26.20;48.33
54329;BME280;40710;51.120;13.136;2023-08-06T11:29:04;98074.03;;;26.34;47.74
54329;BME280;40710;51.120;13.136;2023-08-06T11:31:29;98078.25;;;26.62;48.13
54329;BME280;40710;51.120;13.136;2023-08-06T11:33:55;98076.38;;;26.17;48.16
54329;BME280;40710;51.120;13.136;2023-08-06T11:36:33;98077.66;;;26.08;48.36
54329;BME280;40710;51.120;13.136;2023-08-06T11:39:00;98065.72;;;26.81;47.20
54329;BME280;40710;51.120;13.136;2023-08-06T11:41:25;98069.94;;;26.95;46.58
54329;BME280;40710;51.120;13.136;2023-08-06T11:43:52;98071.09;;;26.81;46.73
54329;BME280;40710;51.120;13.136;2023-08-06T11:46:16;98066.06;;;26.91;46.86
54329;BME280;40710;51.120;13.136;2023-08-06T11:48:54;98067.63;;;26.29;47.38
54329;BME280;40710;51.120;13.136;2023-08-06T11:51:23;98068.03;;;26.32;47.20
54329;BME280;40710;51.120;13.136;2023-08-06T11:53:49;98071.78;;;27.02;46.86
54329;BME280;40710;51.120;13.136;2023-08-06T11:56:14;98065.16;;;26.72;47.65
54329;BME280;40710;51.120;13.136;2023-08-06T11:58:41;98062.41;;;27.04;46.04
54329;BME280;40710;51.120;13.136;2023-08-06T12:01:05;98054.75;;;26.76;44.69
54329;BME280;40710;51.120;13.136;2023-08-06T12:03:30;98050.56;;;26.80;44.22
54329;BME280;40710;51.120;13.136;2023-08-06T12:05:55;98056.09;;;26.92;44.63
54329;BME280;40710;51.120;13.136;2023-08-06T12:08:20;98050.00;;;27.28;42.58
54329;BME280;40710;51.120;13.136;2023-08-06T12:10:45;98053.69;;;27.34;42.21
54329;BME280;40710;51.120;13.136;2023-08-06T12:13:11;98043.22;;;27.63;41.99
54329;BME280;40710;51.120;13.136;2023-08-06T12:15:37;98055.81;;;27.25;42.22
54329;BME280;40710;51.120;13.136;2023-08-06T12:18:02;98046.94;;;27.43;41.99
54329;BME280;40710;51.120;13.136;2023-08-06T12:20:27;98033.72;;;28.76;41.32
54329;BME280;40710;51.120;13.136;2023-08-06T12:22:53;98037.19;;;28.04;40.89
54329;BME280;40710;51.120;13.136;2023-08-06T12:25:18;98046.91;;;28.24;41.85
54329;BME280;40710;51.120;13.136;2023-08-06T12:27:44;98047.50;;;27.89;42.59
54329;BME280;40710;51.120;13.136;2023-08-06T12:30:11;98047.31;;;27.47;42.30
54329;BME280;40710;51.120;13.136;2023-08-06T12:32:37;98047.97;;;27.86;42.46
54329;BME280;40710;51.120;13.136;2023-08-06T12:35:02;98026.81;;;28.20;40.83
54329;BME280;40710;51.120;13.136;2023-08-06T12:37:26;98034.41;;;28.11;41.23
54329;BME280;40710;51.120;13.136;2023-08-06T12:39:51;98036.72;;;27.70;41.68
54329;BME280;40710;51.120;13.136;2023-08-06T12:42:16;98027.94;;;28.12;40.51
54329;BME280;40710;51.120;13.136;2023-08-06T12:44:41;98035.22;;;27.56;41.63
54329;BME280;40710;51.120;13.136;2023-08-06T12:47:06;98029.38;;;27.96;40.30